createdAt,value
2018-11-28T00:00:32.232Z,-3.07
2018-11-28T00:03:03.380Z,-3.16
2018-11-28T00:05:32.252Z,-3.17
2018-11-28T00:08:16.967Z,-3.24
2018-11-28T00:10:45.879Z,-3.16
2018-11-28T00:13:14.827Z,-3.20
2018-11-28T00:15:43.693Z,-3.33
2018-11-28T00:18:12.535Z,-3.31
2018-11-28T00:20:41.430Z,-3.30
2018-11-28T00:23:10.314Z,-3.28
2018-11-28T00:25:39.189Z,-3.34
2018-11-28T00:28:08.110Z,-3.42
2018-11-28T00:30:37.806Z,-3.40
2018-11-28T00:33:06.652Z,-3.50
2018-11-28T00:35:35.554Z,-3.57
2018-11-28T00:38:04.447Z,-3.58
2018-11-28T00:40:33.334Z,-3.59
2018-11-28T00:43:02.938Z,-3.60
2018-11-28T00:45:33.431Z,-3.57
2018-11-28T00:48:03.527Z,-3.66
2018-11-28T00:50:32.386Z,-3.59
2018-11-28T00:53:01.312Z,-3.63
2018-11-28T00:55:30.263Z,-3.65
2018-11-28T00:57:59.127Z,-3.55
2018-11-28T01:00:28.055Z,-3.47
2018-11-28T01:02:56.947Z,-3.43
2018-11-28T01:05:25.808Z,-3.57
2018-11-28T01:07:55.530Z,-3.68
2018-11-28T01:10:25.350Z,-3.64
2018-11-28T01:12:54.789Z,-3.64
2018-11-28T01:15:23.631Z,-3.60
2018-11-28T01:17:52.591Z,-3.71
2018-11-28T01:20:22.763Z,-3.74
2018-11-28T01:22:51.748Z,-3.82
2018-11-28T01:25:21.535Z,-3.87
2018-11-28T01:27:51.158Z,-3.90
2018-11-28T01:30:21.004Z,-4.00
2018-11-28T01:32:49.860Z,-3.96
2018-11-28T01:35:19.540Z,-3.95
2018-11-28T01:37:48.426Z,-3.94
2018-11-28T01:40:19.524Z,-3.97
2018-11-28T01:42:48.397Z,-3.97
2018-11-28T01:45:20.320Z,-4.02
2018-11-28T01:47:49.239Z,-4.01
2018-11-28T01:50:19.924Z,-4.05
2018-11-28T01:52:48.767Z,-3.92
2018-11-28T01:55:18.990Z,-4.05
2018-11-28T01:57:47.923Z,-4.09
2018-11-28T02:00:19.899Z,-4.09
2018-11-28T02:02:52.859Z,-4.10
2018-11-28T02:05:21.767Z,-4.08
2018-11-28T02:07:50.651Z,-4.02
2018-11-28T02:10:19.545Z,-4.08
2018-11-28T02:12:48.403Z,-4.11
2018-11-28T02:15:18.223Z,-4.15
2018-11-28T02:17:47.263Z,-4.17
2018-11-28T02:20:16.940Z,-4.16
2018-11-28T02:22:46.264Z,-4.21
2018-11-28T02:25:16.059Z,-4.16
2018-11-28T02:27:45.159Z,-4.16
2018-11-28T02:30:17.893Z,-4.33
2018-11-28T02:32:47.376Z,-4.33
2018-11-28T02:35:16.644Z,-4.42
2018-11-28T02:37:45.490Z,-4.37
2018-11-28T02:40:15.372Z,-4.41
2018-11-28T02:42:44.459Z,-4.42
2018-11-28T02:45:14.342Z,-4.43
2018-11-28T02:47:43.184Z,-4.32
2018-11-28T02:50:12.029Z,-4.36
2018-11-28T02:52:40.922Z,-4.46
2018-11-28T02:55:17.542Z,-4.45
2018-11-28T02:57:47.504Z,-4.47
2018-11-28T03:00:19.351Z,-4.51
2018-11-28T03:02:48.238Z,-4.58
2018-11-28T03:05:17.142Z,-4.63
2018-11-28T03:07:46.021Z,-4.59
2018-11-28T03:10:23.255Z,-4.57
2018-11-28T03:12:52.117Z,-4.52
2018-11-28T03:15:26.976Z,-4.60
2018-11-28T03:17:55.892Z,-4.63
2018-11-28T03:20:24.844Z,-4.68
2018-11-28T03:22:53.977Z,-4.72
2018-11-28T03:25:22.848Z,-4.75
2018-11-28T03:27:52.182Z,-4.76
2018-11-28T03:30:21.077Z,-4.76
2018-11-28T03:32:49.993Z,-4.86
2018-11-28T03:35:18.895Z,-4.83
2018-11-28T03:37:47.760Z,-4.82
2018-11-28T03:40:16.666Z,-4.87
2018-11-28T03:42:45.599Z,-4.87
2018-11-28T03:45:15.475Z,-4.85
2018-11-28T03:47:45.054Z,-4.90
2018-11-28T03:50:14.896Z,-4.82
2018-11-28T03:52:43.847Z,-4.86
2018-11-28T03:55:13.735Z,-4.88
2018-11-28T03:57:43.304Z,-4.95
2018-11-28T04:00:14.274Z,-4.94
2018-11-28T04:02:43.174Z,-4.98
2018-11-28T04:05:12.426Z,-4.91
2018-11-28T04:07:41.422Z,-4.94
2018-11-28T04:10:12.358Z,-4.86
2018-11-28T04:12:41.570Z,-4.91
2018-11-28T04:15:16.392Z,-4.94
2018-11-28T04:17:45.262Z,-4.80
2018-11-28T04:20:14.984Z,-4.72
2018-11-28T04:22:43.889Z,-4.65
2018-11-28T04:25:13.726Z,-4.63
2018-11-28T04:27:42.551Z,-4.56
2018-11-28T04:30:14.633Z,-4.53
2018-11-28T04:32:43.542Z,-4.38
2018-11-28T04:35:13.238Z,-4.32
2018-11-28T04:37:42.556Z,-4.10
2018-11-28T04:40:13.276Z,-3.99
2018-11-28T04:42:42.507Z,-3.87
2018-11-28T04:45:13.715Z,-3.76
2018-11-28T04:47:42.679Z,-3.63
2018-11-28T04:50:12.011Z,-3.54
2018-11-28T04:52:40.851Z,-3.55
2018-11-28T04:55:11.992Z,-3.48
2018-11-28T04:57:40.846Z,-3.38
2018-11-28T05:00:13.103Z,-3.28
2018-11-28T05:02:41.971Z,-3.20
2018-11-28T05:05:11.283Z,-3.14
2018-11-28T05:07:40.753Z,-3.06
2018-11-28T05:10:12.348Z,-2.97
2018-11-28T05:12:41.240Z,-2.93
2018-11-28T05:15:12.075Z,-2.88
2018-11-28T05:17:41.266Z,-2.83
2018-11-28T05:20:13.002Z,-2.78
2018-11-28T05:22:41.926Z,-2.73
2018-11-28T05:25:13.294Z,-2.71
2018-11-28T05:27:42.230Z,-2.64
2018-11-28T05:30:12.454Z,-2.56
2018-11-28T05:32:41.506Z,-2.47
2018-11-28T05:35:12.140Z,-2.41
2018-11-28T05:37:40.994Z,-2.41
2018-11-28T05:40:11.992Z,-2.35
2018-11-28T05:42:40.822Z,-2.22
2018-11-28T05:45:10.827Z,-2.36
2018-11-28T05:47:39.657Z,-2.35
2018-11-28T05:50:10.059Z,-2.31
2018-11-28T05:52:38.991Z,-2.47
2018-11-28T05:55:09.256Z,-2.33
2018-11-28T05:57:38.149Z,-2.32
2018-11-28T06:00:15.144Z,-2.40
2018-11-28T06:02:44.015Z,-2.42
2018-11-28T06:05:12.915Z,-2.48
2018-11-28T06:07:41.769Z,-2.40
2018-11-28T06:10:10.622Z,-2.41
2018-11-28T06:12:39.475Z,-2.43
2018-11-28T06:15:11.134Z,-2.37
2018-11-28T06:17:40.031Z,-2.33
2018-11-28T06:20:11.180Z,-2.32
2018-11-28T06:22:46.440Z,-2.32
2018-11-28T06:25:16.870Z,-2.26
2018-11-28T06:27:45.082Z,-2.28
2018-11-28T06:30:18.262Z,-2.22
2018-11-28T06:32:51.286Z,-2.25
2018-11-28T06:35:16.150Z,-2.17
2018-11-28T06:37:45.159Z,-2.20
2018-11-28T06:40:15.051Z,-2.23
2018-11-28T06:42:45.545Z,-2.16
2018-11-28T06:45:16.552Z,-2.04
2018-11-28T06:47:45.466Z,-2.15
2018-11-28T06:50:15.477Z,-2.10
2018-11-28T06:52:45.392Z,-2.05
2018-11-28T06:55:15.480Z,-1.89
2018-11-28T06:57:44.345Z,-1.90
2018-11-28T07:00:14.507Z,-1.82
2018-11-28T07:02:43.403Z,-1.63
2018-11-28T07:05:12.789Z,-1.53
2018-11-28T07:07:41.691Z,-1.62
2018-11-28T07:10:13.752Z,-1.61
2018-11-28T07:12:42.621Z,-1.54
2018-11-28T07:15:12.564Z,-1.57
2018-11-28T07:17:41.869Z,-1.59
2018-11-28T07:20:12.799Z,-1.54
2018-11-28T07:22:41.711Z,-1.40
2018-11-28T07:25:14.360Z,-1.41
2018-11-28T07:27:45.472Z,-1.41
2018-11-28T07:30:21.110Z,-1.26
2018-11-28T07:32:53.485Z,-1.24
2018-11-28T07:35:22.527Z,-1.15
2018-11-28T07:37:51.369Z,-1.04
2018-11-28T07:40:21.641Z,-1.12
2018-11-28T07:42:57.284Z,-1.23
2018-11-28T07:45:26.193Z,-1.14
2018-11-28T07:47:55.031Z,-1.01
2018-11-28T07:50:23.880Z,-0.83
2018-11-28T07:52:52.835Z,-0.92
2018-11-28T07:55:21.739Z,-0.87
2018-11-28T07:57:50.569Z,-0.88
2018-11-28T08:00:19.483Z,-0.73
2018-11-28T08:02:48.407Z,-0.63
2018-11-28T08:05:17.299Z,-0.61
2018-11-28T08:07:46.210Z,-0.53
2018-11-28T08:10:21.793Z,-0.49
2018-11-28T08:12:54.615Z,-0.34
2018-11-28T08:15:23.487Z,-0.26
2018-11-28T08:17:52.338Z,-0.09
2018-11-28T08:20:21.196Z,-0.04
2018-11-28T08:22:50.027Z,0.03
2018-11-28T08:25:18.859Z,0.17
2018-11-28T08:27:48.787Z,0.30
2018-11-28T08:30:21.758Z,0.40
2018-11-28T08:32:50.777Z,0.43
2018-11-28T08:35:19.669Z,0.58
2018-11-28T08:37:48.546Z,0.70
2018-11-28T08:40:21.419Z,0.73
2018-11-28T08:42:50.263Z,0.84
2018-11-28T08:45:20.098Z,0.97
2018-11-28T08:47:50.071Z,0.99
2018-11-28T08:50:22.410Z,0.90
2018-11-28T08:52:51.554Z,0.90
2018-11-28T08:55:20.414Z,0.91
2018-11-28T08:57:49.291Z,1.08
2018-11-28T09:00:19.325Z,1.45
2018-11-28T09:02:49.107Z,1.32
2018-11-28T09:05:17.931Z,1.07
2018-11-28T09:07:46.819Z,1.03
2018-11-28T09:10:16.475Z,1.17
2018-11-28T09:12:46.057Z,1.21
2018-11-28T09:15:20.034Z,1.19
2018-11-28T09:17:48.898Z,1.25
2018-11-28T09:20:17.820Z,1.31
2018-11-28T09:22:46.682Z,1.19
2018-11-28T09:25:17.642Z,1.68
2018-11-28T09:27:52.676Z,1.80
2018-11-28T09:30:21.624Z,2.07
2018-11-28T09:32:50.964Z,2.47
2018-11-28T09:35:20.164Z,2.55
2018-11-28T09:37:49.135Z,2.30
2018-11-28T09:40:25.707Z,2.04
2018-11-28T09:42:57.690Z,1.92
2018-11-28T09:45:26.802Z,1.78
2018-11-28T09:47:55.659Z,1.54
2018-11-28T09:50:26.290Z,1.49
2018-11-28T09:52:55.187Z,1.19
2018-11-28T09:55:24.898Z,1.14
2018-11-28T09:57:53.819Z,1.29
2018-11-28T10:00:23.708Z,1.31
2018-11-28T10:02:53.623Z,1.37
2018-11-28T10:05:23.615Z,1.30
2018-11-28T10:07:52.471Z,1.44
2018-11-28T10:10:21.348Z,1.58
2018-11-28T10:12:50.451Z,1.64
2018-11-28T10:15:22.103Z,1.88
2018-11-28T10:17:50.991Z,1.73
2018-11-28T10:20:20.203Z,1.81
2018-11-28T10:22:50.088Z,1.87
2018-11-28T10:25:19.999Z,2.00
2018-11-28T10:27:50.207Z,2.21
2018-11-28T10:30:22.963Z,2.04
2018-11-28T10:32:52.276Z,2.29
2018-11-28T10:35:21.186Z,2.58
2018-11-28T10:37:50.042Z,2.50
2018-11-28T10:40:23.794Z,2.68
2018-11-28T10:42:56.794Z,2.56
2018-11-28T10:45:27.651Z,2.69
2018-11-28T10:47:56.530Z,2.88
2018-11-28T10:50:25.460Z,2.72
2018-11-28T10:52:54.393Z,2.67
2018-11-28T10:55:24.281Z,2.58
2018-11-28T10:57:53.164Z,2.58
2018-11-28T11:00:31.495Z,2.69
2018-11-28T11:03:05.811Z,2.41
2018-11-28T11:05:39.979Z,2.35
2018-11-28T11:08:14.112Z,2.22
2018-11-28T11:10:48.364Z,2.44
2018-11-28T11:13:22.498Z,2.43
2018-11-28T11:15:55.342Z,2.48
2018-11-28T11:18:24.298Z,2.36
2018-11-28T11:20:53.179Z,2.38
2018-11-28T11:23:22.093Z,2.38
2018-11-28T11:25:51.319Z,2.41
2018-11-28T11:28:20.414Z,2.45
2018-11-28T11:30:49.318Z,2.53
2018-11-28T11:33:18.163Z,2.71
2018-11-28T11:35:46.999Z,2.76
2018-11-28T11:38:15.864Z,2.96
2018-11-28T11:40:44.734Z,3.22
2018-11-28T11:43:13.642Z,3.53
2018-11-28T11:45:42.542Z,3.82
2018-11-28T11:48:11.473Z,3.98
2018-11-28T11:50:40.321Z,3.95
2018-11-28T11:53:09.214Z,3.81
2018-11-28T11:55:38.088Z,3.52
2018-11-28T11:58:07.216Z,3.72
2018-11-28T12:00:37.864Z,3.57
2018-11-28T12:03:09.283Z,3.36
2018-11-28T12:05:38.608Z,3.36
2018-11-28T12:08:07.854Z,3.46
2018-11-28T12:10:36.692Z,3.54
2018-11-28T12:13:05.773Z,3.42
2018-11-28T12:15:35.733Z,3.22
2018-11-28T12:18:04.278Z,3.02
2018-11-28T12:20:37.465Z,3.31
2018-11-28T12:23:06.432Z,3.55
2018-11-28T12:25:35.633Z,3.39
2018-11-28T12:28:04.963Z,3.24
2018-11-28T12:30:34.451Z,3.24
2018-11-28T12:33:03.365Z,3.07
2018-11-28T12:35:32.224Z,2.86
2018-11-28T12:38:01.568Z,2.94
2018-11-28T12:40:32.453Z,2.89
2018-11-28T12:43:01.981Z,2.68
2018-11-28T12:45:30.941Z,2.61
2018-11-28T12:47:59.799Z,2.62
2018-11-28T12:50:29.755Z,2.78
2018-11-28T12:52:59.711Z,2.86
2018-11-28T12:55:29.058Z,3.17
2018-11-28T12:57:58.020Z,3.65
2018-11-28T13:00:28.352Z,3.77
2018-11-28T13:02:57.276Z,4.03
2018-11-28T13:05:26.775Z,4.22
2018-11-28T13:07:55.719Z,4.24
2018-11-28T13:10:29.782Z,3.85
2018-11-28T13:12:58.728Z,4.07
2018-11-28T13:15:27.561Z,4.09
2018-11-28T13:17:56.524Z,4.25
2018-11-28T13:20:25.472Z,4.07
2018-11-28T13:22:55.797Z,3.93
2018-11-28T13:25:25.880Z,3.95
2018-11-28T13:27:55.004Z,3.80
2018-11-28T13:30:24.700Z,3.72
2018-11-28T13:32:54.652Z,3.42
2018-11-28T13:35:25.538Z,3.59
2018-11-28T13:38:06.719Z,3.52
2018-11-28T13:40:35.563Z,3.69
2018-11-28T13:43:04.616Z,3.62
2018-11-28T13:45:34.934Z,3.96
2018-11-28T13:48:03.782Z,4.02
2018-11-28T13:50:32.716Z,4.45
2018-11-28T13:53:03.550Z,5.32
2018-11-28T13:55:39.739Z,6.47
2018-11-28T13:58:03.830Z,7.78
2018-11-28T14:00:32.786Z,8.07
2018-11-28T14:03:01.666Z,7.96
2018-11-28T14:05:30.526Z,6.86
2018-11-28T14:07:59.436Z,6.12
2018-11-28T14:10:28.269Z,5.58
2018-11-28T14:12:57.321Z,4.85
2018-11-28T14:15:26.322Z,5.05
2018-11-28T14:17:57.498Z,4.84
2018-11-28T14:20:26.459Z,5.10
2018-11-28T14:22:55.303Z,5.43
2018-11-28T14:25:24.239Z,5.13
2018-11-28T14:27:53.035Z,4.61
2018-11-28T14:30:23.655Z,4.38
2018-11-28T14:32:53.055Z,4.10
2018-11-28T14:35:22.668Z,3.71
2018-11-28T14:37:51.603Z,2.95
2018-11-28T14:40:21.466Z,2.42
2018-11-28T14:42:51.503Z,1.95
2018-11-28T14:45:20.489Z,1.56
2018-11-28T14:47:50.183Z,1.43
2018-11-28T14:50:24.059Z,1.29
2018-11-28T14:52:53.730Z,0.91
2018-11-28T14:55:23.881Z,0.91
2018-11-28T14:57:52.724Z,0.74
2018-11-28T15:00:23.801Z,0.57
2018-11-28T15:03:28.410Z,0.53
2018-11-28T15:06:04.980Z,0.28
2018-11-28T15:08:33.934Z,0.23
2018-11-28T15:11:08.987Z,0.18
2018-11-28T15:13:38.272Z,-0.01
2018-11-28T15:16:07.324Z,-0.22
2018-11-28T15:18:36.281Z,-0.38
2018-11-28T15:21:05.977Z,-0.54
2018-11-28T15:23:34.871Z,-0.55
2018-11-28T15:26:03.783Z,-0.66
2018-11-28T15:28:33.700Z,-0.72
2018-11-28T15:31:02.579Z,-0.81
2018-11-28T15:33:31.443Z,-0.99
2018-11-28T15:36:00.523Z,-1.06
2018-11-28T15:38:29.440Z,-1.23
2018-11-28T15:40:58.284Z,-1.35
2018-11-28T15:43:27.277Z,-1.49
2018-11-28T15:45:56.103Z,-1.44
2018-11-28T15:48:24.955Z,-1.60
2018-11-28T15:50:53.887Z,-1.68
2018-11-28T15:53:22.731Z,-1.69
2018-11-28T15:55:51.675Z,-1.62
2018-11-28T15:58:20.520Z,-1.76
2018-11-28T16:00:49.450Z,-1.88
2018-11-28T16:03:18.926Z,-1.81
2018-11-28T16:05:47.858Z,-1.95
2018-11-28T16:08:16.706Z,-2.07
2018-11-28T16:10:45.555Z,-2.10
2018-11-28T16:13:15.950Z,-2.18
2018-11-28T16:15:55.090Z,-2.23
2018-11-28T16:18:23.954Z,-2.28
2018-11-28T16:20:52.866Z,-2.22
2018-11-28T16:23:21.768Z,-2.16
2018-11-28T16:25:50.624Z,-2.17
2018-11-28T16:28:19.576Z,-2.29
2018-11-28T16:30:48.452Z,-2.32
2018-11-28T16:33:17.311Z,-2.30
2018-11-28T16:35:46.203Z,-2.35
2018-11-28T16:38:15.064Z,-2.27
2018-11-28T16:40:44.005Z,-2.06
2018-11-28T16:43:12.871Z,-2.14
2018-11-28T16:45:41.972Z,-2.28
2018-11-28T16:48:10.687Z,-2.35
2018-11-28T16:50:39.543Z,-2.42
2018-11-28T16:53:08.857Z,-2.47
2018-11-28T16:55:37.727Z,-2.54
2018-11-28T16:58:07.599Z,-2.31
2018-11-28T17:00:39.219Z,-2.34
2018-11-28T17:03:08.088Z,-2.37
2018-11-28T17:05:37.072Z,-2.31
2018-11-28T17:08:07.521Z,-2.25
2018-11-28T17:10:36.398Z,-2.37
2018-11-28T17:13:05.732Z,-2.43
2018-11-28T17:15:34.590Z,-2.41
2018-11-28T17:18:03.475Z,-2.52
2018-11-28T17:20:32.370Z,-2.63
2018-11-28T17:23:01.280Z,-2.71
2018-11-28T17:25:31.284Z,-2.76
2018-11-28T17:28:00.211Z,-2.86
2018-11-28T17:30:30.110Z,-2.88
2018-11-28T17:32:59.057Z,-2.86
2018-11-28T17:35:27.902Z,-2.87
2018-11-28T17:37:57.109Z,-2.96
2018-11-28T17:40:27.199Z,-3.00
2018-11-28T17:42:58.467Z,-3.03
2018-11-28T17:45:28.142Z,-3.08
2018-11-28T17:47:57.074Z,-3.11
2018-11-28T17:50:26.946Z,-3.16
2018-11-28T17:53:07.670Z,-3.25
2018-11-28T17:55:44.163Z,-3.25
2018-11-28T17:58:13.057Z,-3.29
2018-11-28T18:00:41.920Z,-3.24
2018-11-28T18:03:10.774Z,-3.32
2018-11-28T18:05:39.740Z,-3.29
2018-11-28T18:08:08.591Z,-3.33
2018-11-28T18:10:37.632Z,-3.46
2018-11-28T18:13:12.509Z,-3.55
2018-11-28T18:15:49.505Z,-3.60
2018-11-28T18:18:19.651Z,-3.51
2018-11-28T18:20:50.264Z,-3.58
2018-11-28T18:23:17.399Z,-3.66
2018-11-28T18:25:46.834Z,-3.71
2018-11-28T18:28:15.739Z,-3.71
2018-11-28T18:30:44.709Z,-3.68
2018-11-28T18:33:14.239Z,-3.69
2018-11-28T18:35:43.295Z,-3.72
2018-11-28T18:38:12.306Z,-3.82
2018-11-28T18:40:41.170Z,-3.79
2018-11-28T18:43:10.878Z,-3.80
2018-11-28T18:45:41.609Z,-3.56
2018-11-28T18:48:10.484Z,-3.59
2018-11-28T18:50:39.401Z,-3.65
2018-11-28T18:53:08.254Z,-3.72
2018-11-28T18:55:37.232Z,-3.82
2018-11-28T18:58:08.739Z,-3.85
2018-11-28T19:00:37.827Z,-3.92
2018-11-28T19:03:07.484Z,-3.94
2018-11-28T19:05:36.508Z,-3.94
2018-11-28T19:08:05.752Z,-3.98
2018-11-28T19:10:34.611Z,-3.96
2018-11-28T19:13:03.552Z,-3.93
2018-11-28T19:15:32.407Z,-3.99
2018-11-28T19:18:01.268Z,-3.90
2018-11-28T19:20:30.124Z,-3.93
2018-11-28T19:22:59.056Z,-3.93
2018-11-28T19:25:28.795Z,-3.95
2018-11-28T19:27:57.731Z,-3.63
2018-11-28T19:30:41.441Z,-3.64
2018-11-28T19:33:11.391Z,-3.74
2018-11-28T19:35:40.343Z,-3.86
2018-11-28T19:38:12.321Z,-3.89
2018-11-28T19:40:51.736Z,-3.95
2018-11-28T19:43:20.681Z,-4.04
2018-11-28T19:45:49.526Z,-4.02
2018-11-28T19:48:18.632Z,-4.00
2018-11-28T19:50:47.584Z,-4.06
2018-11-28T19:53:16.452Z,-4.10
2018-11-28T19:55:45.432Z,-4.12
2018-11-28T19:58:15.197Z,-4.13
2018-11-28T20:00:45.105Z,-4.16
2018-11-28T20:03:14.026Z,-4.19
2018-11-28T20:05:42.884Z,-4.13
2018-11-28T20:08:11.789Z,-4.15
2018-11-28T20:10:40.741Z,-4.21
2018-11-28T20:13:10.404Z,-4.23
2018-11-28T20:15:41.111Z,-4.08
2018-11-28T20:18:09.994Z,-4.05
2018-11-28T20:20:38.921Z,-4.15
2018-11-28T20:23:08.194Z,-4.04
2018-11-28T20:25:37.557Z,-4.08
2018-11-28T20:28:07.920Z,-4.00
2018-11-28T20:30:38.369Z,-3.97
2018-11-28T20:33:07.896Z,-4.09
2018-11-28T20:35:36.756Z,-4.12
2018-11-28T20:38:06.057Z,-4.04
2018-11-28T20:40:34.933Z,-4.13
2018-11-28T20:43:03.814Z,-4.24
2018-11-28T20:45:32.735Z,-4.25
2018-11-28T20:48:01.606Z,-4.19
2018-11-28T20:50:33.257Z,-4.19
2018-11-28T20:53:08.171Z,-4.23
2018-11-28T20:55:37.657Z,-4.23
2018-11-28T20:58:06.920Z,-4.19
2018-11-28T21:00:35.880Z,-4.20
2018-11-28T21:03:04.882Z,-4.17
2018-11-28T21:05:33.808Z,-4.18
2018-11-28T21:08:02.992Z,-4.23
2018-11-28T21:10:35.543Z,-4.32
2018-11-28T21:13:05.278Z,-4.37
2018-11-28T21:15:34.222Z,-4.40
2018-11-28T21:18:03.934Z,-4.29
2018-11-28T21:20:34.098Z,-4.21
2018-11-28T21:23:06.437Z,-4.12
2018-11-28T21:25:36.574Z,-4.30
2018-11-28T21:28:05.614Z,-4.19
2018-11-28T21:30:34.524Z,-4.03
2018-11-28T21:33:03.385Z,-3.83
2018-11-28T21:35:33.458Z,-3.96
2018-11-28T21:38:02.611Z,-4.15
2018-11-28T21:40:31.699Z,-4.12
2018-11-28T21:43:01.471Z,-4.10
2018-11-28T21:45:30.391Z,-4.08
2018-11-28T21:47:59.262Z,-4.18
2018-11-28T21:50:28.219Z,-4.15
2018-11-28T21:52:57.576Z,-4.31
2018-11-28T21:55:26.428Z,-4.46
2018-11-28T21:57:55.340Z,-4.43
2018-11-28T22:00:25.735Z,-4.33
2018-11-28T22:02:54.652Z,-4.26
2018-11-28T22:05:24.032Z,-4.20
2018-11-28T22:07:52.882Z,-4.22
2018-11-28T22:10:23.702Z,-4.21
2018-11-28T22:12:53.066Z,-4.32
2018-11-28T22:15:21.954Z,-4.46
2018-11-28T22:17:52.816Z,-4.29
2018-11-28T22:20:21.774Z,-4.37
2018-11-28T22:22:50.672Z,-4.19
2018-11-28T22:25:20.616Z,-4.28
2018-11-28T22:27:49.473Z,-4.41
2018-11-28T22:30:22.512Z,-4.28
2018-11-28T22:32:51.408Z,-4.32
2018-11-28T22:35:20.351Z,-4.47
2018-11-28T22:37:49.205Z,-4.47
2018-11-28T22:40:21.308Z,-4.39
2018-11-28T22:42:50.274Z,-4.27
2018-11-28T22:45:20.180Z,-4.30
2018-11-28T22:47:49.091Z,-4.46
2018-11-28T22:50:17.955Z,-4.46
2018-11-28T22:52:46.811Z,-4.60
2018-11-28T22:55:16.173Z,-4.65
2018-11-28T22:57:45.030Z,-4.77
2018-11-28T23:00:16.666Z,-4.80
2018-11-28T23:02:58.889Z,-4.77
2018-11-28T23:05:29.760Z,-4.81
2018-11-28T23:07:59.690Z,-4.72
2018-11-28T23:10:28.600Z,-4.80
2018-11-28T23:12:57.490Z,-4.78
2018-11-28T23:15:26.350Z,-4.76
2018-11-28T23:17:55.565Z,-4.76
2018-11-28T23:20:24.078Z,-4.77
2018-11-28T23:22:52.934Z,-4.71
2018-11-28T23:25:21.818Z,-4.63
2018-11-28T23:27:51.176Z,-4.52
2018-11-28T23:30:20.528Z,-4.48
2018-11-28T23:32:49.986Z,-4.47
2018-11-28T23:35:19.021Z,-4.43
2018-11-28T23:37:48.817Z,-4.42
2018-11-28T23:40:25.255Z,-4.46
2018-11-28T23:42:54.791Z,-4.36
2018-11-28T23:45:24.199Z,-4.36
2018-11-28T23:47:53.059Z,-4.29
2018-11-28T23:50:24.067Z,-4.36
2018-11-28T23:52:55.620Z,-4.50
2018-11-28T23:55:26.242Z,-4.48
2018-11-28T23:57:55.319Z,-4.52
